sensor_id;sensor_type;location;lat;lon;timestamp;P1;durP1;ratioP1;P2;durP2;ratioP2
22679;SDS011;11507;44.858;10.374;2023-12-04T00:02:17;35.33;;;21.35;;
22679;SDS011;11507;44.858;10.374;2023-12-04T00:04:43;80.80;;;22.95;;
22679;SDS011;11507;44.858;10.374;2023-12-04T00:07:09;52.55;;;22.08;;
22679;SDS011;11507;44.858;10.374;2023-12-04T00:09:35;38.03;;;21.77;;
22679;SDS011;11507;44.858;10.374;2023-12-04T00:12:01;39.35;;;22.30;;
22679;SDS011;11507;44.858;10.374;2023-12-04T00:14:28;35.53;;;20.13;;
22679;SDS011;11507;44.858;10.374;2023-12-04T00:16:54;35.15;;;17.83;;
22679;SDS011;11507;44.858;10.374;2023-12-04T00:19:20;25.90;;;15.48;;
22679;SDS011;11507;44.858;10.374;2023-12-04T00:21:46;29.23;;;16.90;;
22679;SDS011;11507;44.858;10.374;2023-12-04T00:24:12;35.42;;;17.70;;
22679;SDS011;11507;44.858;10.374;2023-12-04T00:26:38;37.72;;;19.42;;
22679;SDS011;11507;44.858;10.374;2023-12-04T00:29:04;43.13;;;20.45;;
22679;SDS011;11507;44.858;10.374;2023-12-04T00:31:30;38.47;;;19.80;;
22679;SDS011;11507;44.858;10.374;2023-12-04T00:33:57;34.22;;;18.70;;
22679;SDS011;11507;44.858;10.374;2023-12-04T00:36:23;29.75;;;18.05;;
22679;SDS011;11507;44.858;10.374;2023-12-04T00:38:49;34.28;;;17.75;;
22679;SDS011;11507;44.858;10.374;2023-12-04T00:41:15;34.15;;;19.13;;
22679;SDS011;11507;44.858;10.374;2023-12-04T00:43:41;35.95;;;19.58;;
22679;SDS011;11507;44.858;10.374;2023-12-04T00:46:07;34.03;;;18.75;;
22679;SDS011;11507;44.858;10.374;2023-12-04T00:48:33;35.33;;;19.15;;
22679;SDS011;11507;44.858;10.374;2023-12-04T00:51:00;35.63;;;19.35;;
22679;SDS011;11507;44.858;10.374;2023-12-04T00:53:26;31.25;;;17.70;;
22679;SDS011;11507;44.858;10.374;2023-12-04T00:55:52;31.08;;;18.25;;
22679;SDS011;11507;44.858;10.374;2023-12-04T00:58:18;30.65;;;17.50;;
22679;SDS011;11507;44.858;10.374;2023-12-04T01:00:44;30.13;;;17.63;;
22679;SDS011;11507;44.858;10.374;2023-12-04T01:03:13;28.20;;;16.80;;
22679;SDS011;11507;44.858;10.374;2023-12-04T01:05:40;37.00;;;18.83;;
22679;SDS011;11507;44.858;10.374;2023-12-04T01:08:06;31.83;;;17.48;;
22679;SDS011;11507;44.858;10.374;2023-12-04T01:10:32;29.77;;;17.35;;
22679;SDS011;11507;44.858;10.374;2023-12-04T01:12:58;34.95;;;19.90;;
22679;SDS011;11507;44.858;10.374;2023-12-04T01:15:24;28.10;;;16.98;;
22679;SDS011;11507;44.858;10.374;2023-12-04T01:17:50;33.45;;;19.73;;
22679;SDS011;11507;44.858;10.374;2023-12-04T01:20:17;33.58;;;19.92;;
22679;SDS011;11507;44.858;10.374;2023-12-04T01:22:43;29.75;;;18.02;;
22679;SDS011;11507;44.858;10.374;2023-12-04T01:25:09;32.83;;;18.75;;
22679;SDS011;11507;44.858;10.374;2023-12-04T01:27:35;32.05;;;19.17;;
22679;SDS011;11507;44.858;10.374;2023-12-04T01:30:03;35.05;;;19.63;;
22679;SDS011;11507;44.858;10.374;2023-12-04T01:32:31;29.20;;;17.05;;
22679;SDS011;11507;44.858;10.374;2023-12-04T01:34:57;31.05;;;19.05;;
22679;SDS011;11507;44.858;10.374;2023-12-04T01:37:23;29.83;;;18.13;;
22679;SDS011;11507;44.858;10.374;2023-12-04T01:39:49;31.73;;;17.92;;
22679;SDS011;11507;44.858;10.374;2023-12-04T01:42:15;31.33;;;18.45;;
22679;SDS011;11507;44.858;10.374;2023-12-04T01:44:41;34.22;;;19.17;;
22679;SDS011;11507;44.858;10.374;2023-12-04T01:47:08;27.73;;;17.95;;
22679;SDS011;11507;44.858;10.374;2023-12-04T01:49:34;31.75;;;18.58;;
22679;SDS011;11507;44.858;10.374;2023-12-04T01:52:01;30.90;;;18.10;;
22679;SDS011;11507;44.858;10.374;2023-12-04T01:54:29;39.88;;;21.05;;
22679;SDS011;11507;44.858;10.374;2023-12-04T01:56:56;29.98;;;19.08;;
22679;SDS011;11507;44.858;10.374;2023-12-04T01:59:24;60.67;;;22.02;;
22679;SDS011;11507;44.858;10.374;2023-12-04T02:01:51;34.65;;;21.15;;
22679;SDS011;11507;44.858;10.374;2023-12-04T02:04:18;35.50;;;21.23;;
22679;SDS011;11507;44.858;10.374;2023-12-04T02:06:44;32.65;;;20.17;;
22679;SDS011;11507;44.858;10.374;2023-12-04T02:09:10;34.83;;;19.65;;
22679;SDS011;11507;44.858;10.374;2023-12-04T02:11:38;33.20;;;20.63;;
22679;SDS011;11507;44.858;10.374;2023-12-04T02:14:05;32.25;;;19.05;;
22679;SDS011;11507;44.858;10.374;2023-12-04T02:16:32;36.42;;;19.55;;
22679;SDS011;11507;44.858;10.374;2023-12-04T02:19:07;31.50;;;18.38;;
22679;SDS011;11507;44.858;10.374;2023-12-04T02:21:34;34.42;;;19.65;;
22679;SDS011;11507;44.858;10.374;2023-12-04T02:24:00;35.95;;;21.15;;
22679;SDS011;11507;44.858;10.374;2023-12-04T02:26:31;33.50;;;19.40;;
22679;SDS011;11507;44.858;10.374;2023-12-04T02:29:01;29.77;;;16.83;;
22679;SDS011;11507;44.858;10.374;2023-12-04T02:31:32;44.45;;;19.23;;
22679;SDS011;11507;44.858;10.374;2023-12-04T02:34:02;33.35;;;18.58;;
22679;SDS011;11507;44.858;10.374;2023-12-04T02:36:31;33.70;;;19.77;;
22679;SDS011;11507;44.858;10.374;2023-12-04T02:38:59;31.35;;;19.85;;
22679;SDS011;11507;44.858;10.374;2023-12-04T02:41:26;28.25;;;16.85;;
22679;SDS011;11507;44.858;10.374;2023-12-04T02:43:52;29.38;;;18.00;;
22679;SDS011;11507;44.858;10.374;2023-12-04T02:46:19;22.13;;;15.23;;
22679;SDS011;11507;44.858;10.374;2023-12-04T02:48:45;71.45;;;19.80;;
22679;SDS011;11507;44.858;10.374;2023-12-04T02:51:11;27.98;;;17.50;;
22679;SDS011;11507;44.858;10.374;2023-12-04T02:53:37;29.42;;;18.90;;
22679;SDS011;11507;44.858;10.374;2023-12-04T02:56:03;32.33;;;20.15;;
22679;SDS011;11507;44.858;10.374;2023-12-04T02:58:30;35.20;;;21.17;;
22679;SDS011;11507;44.858;10.374;2023-12-04T03:00:56;33.80;;;21.40;;
22679;SDS011;11507;44.858;10.374;2023-12-04T03:03:23;38.17;;;23.33;;
22679;SDS011;11507;44.858;10.374;2023-12-04T03:05:49;37.55;;;22.92;;
22679;SDS011;11507;44.858;10.374;2023-12-04T03:08:15;38.88;;;22.55;;
22679;SDS011;11507;44.858;10.374;2023-12-04T03:10:41;37.90;;;21.92;;
22679;SDS011;11507;44.858;10.374;2023-12-04T03:13:07;35.63;;;21.13;;
22679;SDS011;11507;44.858;10.374;2023-12-04T03:15:33;30.88;;;18.92;;
22679;SDS011;11507;44.858;10.374;2023-12-04T03:17:59;33.50;;;20.15;;
22679;SDS011;11507;44.858;10.374;2023-12-04T03:20:26;32.70;;;18.58;;
22679;SDS011;11507;44.858;10.374;2023-12-04T03:22:52;35.35;;;19.88;;
22679;SDS011;11507;44.858;10.374;2023-12-04T03:25:18;28.65;;;18.15;;
22679;SDS011;11507;44.858;10.374;2023-12-04T03:27:44;30.83;;;19.20;;
22679;SDS011;11507;44.858;10.374;2023-12-04T03:30:10;34.22;;;19.95;;
22679;SDS011;11507;44.858;10.374;2023-12-04T03:32:37;36.85;;;20.23;;
22679;SDS011;11507;44.858;10.374;2023-12-04T03:35:03;31.88;;;20.08;;
22679;SDS011;11507;44.858;10.374;2023-12-04T03:37:29;34.25;;;20.75;;
22679;SDS011;11507;44.858;10.374;2023-12-04T03:39:55;34.55;;;19.60;;
22679;SDS011;11507;44.858;10.374;2023-12-04T03:42:21;33.67;;;20.52;;
22679;SDS011;11507;44.858;10.374;2023-12-04T03:44:47;33.85;;;19.02;;
22679;SDS011;11507;44.858;10.374;2023-12-04T03:47:14;35.80;;;19.52;;
22679;SDS011;11507;44.858;10.374;2023-12-04T03:49:40;39.33;;;21.15;;
22679;SDS011;11507;44.858;10.374;2023-12-04T03:52:06;31.80;;;19.30;;
22679;SDS011;11507;44.858;10.374;2023-12-04T03:54:32;34.78;;;20.83;;
22679;SDS011;11507;44.858;10.374;2023-12-04T03:56:58;33.63;;;19.10;;
22679;SDS011;11507;44.858;10.374;2023-12-04T03:59:24;34.53;;;19.80;;
22679;SDS011;11507;44.858;10.374;2023-12-04T04:01:50;36.42;;;21.35;;
22679;SDS011;11507;44.858;10.374;2023-12-04T04:04:16;34.25;;;20.27;;
22679;SDS011;11507;44.858;10.374;2023-12-04T04:06:42;33.58;;;21.33;;
22679;SDS011;11507;44.858;10.374;2023-12-04T04:09:09;35.30;;;21.17;;
22679;SDS011;11507;44.858;10.374;2023-12-04T04:11:35;34.50;;;20.88;;
22679;SDS011;11507;44.858;10.374;2023-12-04T04:14:01;38.63;;;22.02;;
22679;SDS011;11507;44.858;10.374;2023-12-04T04:16:27;34.05;;;20.00;;
22679;SDS011;11507;44.858;10.374;2023-12-04T04:18:53;36.42;;;21.67;;
22679;SDS011;11507;44.858;10.374;2023-12-04T04:21:20;38.33;;;22.38;;
22679;SDS011;11507;44.858;10.374;2023-12-04T04:23:46;35.38;;;21.42;;
22679;SDS011;11507;44.858;10.374;2023-12-04T04:26:12;39.67;;;23.52;;
22679;SDS011;11507;44.858;10.374;2023-12-04T04:28:38;37.20;;;22.40;;
22679;SDS011;11507;44.858;10.374;2023-12-04T04:31:04;39.35;;;23.85;;
22679;SDS011;11507;44.858;10.374;2023-12-04T04:33:30;38.95;;;23.02;;
22679;SDS011;11507;44.858;10.374;2023-12-04T04:35:56;43.22;;;23.52;;
22679;SDS011;11507;44.858;10.374;2023-12-04T04:38:22;39.65;;;24.65;;
22679;SDS011;11507;44.858;10.374;2023-12-04T04:40:49;37.67;;;22.58;;
22679;SDS011;11507;44.858;10.374;2023-12-04T04:43:15;36.25;;;22.52;;
22679;SDS011;11507;44.858;10.374;2023-12-04T04:45:41;47.45;;;24.13;;
22679;SDS011;11507;44.858;10.374;2023-12-04T04:48:07;36.45;;;21.63;;
22679;SDS011;11507;44.858;10.374;2023-12-04T04:50:33;42.60;;;25.10;;
22679;SDS011;11507;44.858;10.374;2023-12-04T04:52:59;38.10;;;22.50;;
22679;SDS011;11507;44.858;10.374;2023-12-04T04:55:26;35.60;;;20.38;;
22679;SDS011;11507;44.858;10.374;2023-12-04T04:57:52;35.88;;;20.90;;
22679;SDS011;11507;44.858;10.374;2023-12-04T05:00:18;41.20;;;23.13;;
22679;SDS011;11507;44.858;10.374;2023-12-04T05:02:45;38.78;;;23.13;;
22679;SDS011;11507;44.858;10.374;2023-12-04T05:05:11;42.20;;;24.55;;
22679;SDS011;11507;44.858;10.374;2023-12-04T05:07:37;40.83;;;24.80;;
22679;SDS011;11507;44.858;10.374;2023-12-04T05:10:03;42.10;;;23.65;;
22679;SDS011;11507;44.858;10.374;2023-12-04T05:12:30;36.63;;;22.35;;
22679;SDS011;11507;44.858;10.374;2023-12-04T05:14:56;37.42;;;21.75;;
22679;SDS011;11507;44.858;10.374;2023-12-04T05:17:22;34.13;;;20.92;;
22679;SDS011;11507;44.858;10.374;2023-12-04T05:19:48;42.00;;;24.55;;
22679;SDS011;11507;44.858;10.374;2023-12-04T05:22:14;38.53;;;22.10;;
22679;SDS011;11507;44.858;10.374;2023-12-04T05:24:40;37.38;;;22.05;;
22679;SDS011;11507;44.858;10.374;2023-12-04T05:27:06;36.42;;;22.05;;
22679;SDS011;11507;44.858;10.374;2023-12-04T05:29:32;38.20;;;21.85;;
22679;SDS011;11507;44.858;10.374;2023-12-04T05:31:58;36.05;;;21.45;;
22679;SDS011;11507;44.858;10.374;2023-12-04T05:34:24;34.60;;;20.63;;
22679;SDS011;11507;44.858;10.374;2023-12-04T05:36:51;37.50;;;22.67;;
22679;SDS011;11507;44.858;10.374;2023-12-04T05:39:17;34.65;;;21.10;;
22679;SDS011;11507;44.858;10.374;2023-12-04T05:41:43;41.53;;;23.48;;
22679;SDS011;11507;44.858;10.374;2023-12-04T05:44:09;38.17;;;23.52;;
22679;SDS011;11507;44.858;10.374;2023-12-04T05:46:35;36.47;;;21.35;;
22679;SDS011;11507;44.858;10.374;2023-12-04T05:49:01;36.85;;;20.63;;
22679;SDS011;11507;44.858;10.374;2023-12-04T05:51:27;35.25;;;20.58;;
22679;SDS011;11507;44.858;10.374;2023-12-04T05:53:54;37.47;;;21.23;;
22679;SDS011;11507;44.858;10.374;2023-12-04T05:56:20;36.30;;;21.90;;
22679;SDS011;11507;44.858;10.374;2023-12-04T05:58:46;38.40;;;22.17;;
22679;SDS011;11507;44.858;10.374;2023-12-04T06:01:12;35.67;;;21.70;;
22679;SDS011;11507;44.858;10.374;2023-12-04T06:03:40;38.67;;;22.55;;
22679;SDS011;11507;44.858;10.374;2023-12-04T06:06:06;35.58;;;22.33;;
22679;SDS011;11507;44.858;10.374;2023-12-04T06:08:33;34.90;;;21.08;;
22679;SDS011;11507;44.858;10.374;2023-12-04T06:10:59;35.40;;;21.70;;
22679;SDS011;11507;44.858;10.374;2023-12-04T06:13:25;36.08;;;21.83;;
22679;SDS011;11507;44.858;10.374;2023-12-04T06:15:51;35.80;;;21.02;;
22679;SDS011;11507;44.858;10.374;2023-12-04T06:18:17;41.42;;;23.25;;
22679;SDS011;11507;44.858;10.374;2023-12-04T06:20:46;35.10;;;21.08;;
22679;SDS011;11507;44.858;10.374;2023-12-04T06:23:12;37.35;;;21.60;;
22679;SDS011;11507;44.858;10.374;2023-12-04T06:25:38;40.10;;;22.08;;
22679;SDS011;11507;44.858;10.374;2023-12-04T06:28:04;33.50;;;20.15;;
22679;SDS011;11507;44.858;10.374;2023-12-04T06:30:31;33.45;;;20.02;;
22679;SDS011;11507;44.858;10.374;2023-12-04T06:32:57;33.20;;;19.17;;
22679;SDS011;11507;44.858;10.374;2023-12-04T06:35:25;35.35;;;19.50;;
22679;SDS011;11507;44.858;10.374;2023-12-04T06:37:53;40.22;;;23.23;;
22679;SDS011;11507;44.858;10.374;2023-12-04T06:40:20;32.13;;;20.45;;
22679;SDS011;11507;44.858;10.374;2023-12-04T06:42:47;33.33;;;19.85;;
22679;SDS011;11507;44.858;10.374;2023-12-04T06:45:14;33.03;;;20.75;;
22679;SDS011;11507;44.858;10.374;2023-12-04T06:47:43;38.50;;;21.88;;
22679;SDS011;11507;44.858;10.374;2023-12-04T06:50:11;40.60;;;23.90;;
22679;SDS011;11507;44.858;10.374;2023-12-04T06:52:37;38.75;;;23.10;;
22679;SDS011;11507;44.858;10.374;2023-12-04T06:55:03;39.15;;;22.60;;
22679;SDS011;11507;44.858;10.374;2023-12-04T06:57:30;33.33;;;19.17;;
22679;SDS011;11507;44.858;10.374;2023-12-04T06:59:56;40.70;;;22.58;;
22679;SDS011;11507;44.858;10.374;2023-12-04T07:02:23;37.42;;;21.42;;
22679;SDS011;11507;44.858;10.374;2023-12-04T07:04:49;45.88;;;22.60;;
22679;SDS011;11507;44.858;10.374;2023-12-04T07:07:17;39.22;;;22.38;;
22679;SDS011;11507;44.858;10.374;2023-12-04T07:09:43;37.88;;;22.25;;
22679;SDS011;11507;44.858;10.374;2023-12-04T07:12:09;43.65;;;23.98;;
22679;SDS011;11507;44.858;10.374;2023-12-04T07:14:36;37.00;;;21.77;;
22679;SDS011;11507;44.858;10.374;2023-12-04T07:17:02;40.78;;;23.38;;
22679;SDS011;11507;44.858;10.374;2023-12-04T07:19:28;40.58;;;24.38;;
22679;SDS011;11507;44.858;10.374;2023-12-04T07:21:54;43.47;;;23.92;;
22679;SDS011;11507;44.858;10.374;2023-12-04T07:24:21;37.47;;;22.83;;
22679;SDS011;11507;44.858;10.374;2023-12-04T07:26:47;37.50;;;22.77;;
22679;SDS011;11507;44.858;10.374;2023-12-04T07:29:14;45.17;;;24.48;;
22679;SDS011;11507;44.858;10.374;2023-12-04T07:31:41;43.33;;;24.52;;
22679;SDS011;11507;44.858;10.374;2023-12-04T07:34:10;35.63;;;21.17;;
22679;SDS011;11507;44.858;10.374;2023-12-04T07:36:36;41.63;;;22.50;;
22679;SDS011;11507;44.858;10.374;2023-12-04T07:39:02;37.90;;;20.83;;
22679;SDS011;11507;44.858;10.374;2023-12-04T07:41:32;38.80;;;21.15;;
22679;SDS011;11507;44.858;10.374;2023-12-04T07:44:03;37.28;;;20.58;;
22679;SDS011;11507;44.858;10.374;2023-12-04T07:46:29;42.25;;;23.88;;
22679;SDS011;11507;44.858;10.374;2023-12-04T07:48:56;42.28;;;25.75;;
22679;SDS011;11507;44.858;10.374;2023-12-04T07:51:23;44.38;;;25.58;;
22679;SDS011;11507;44.858;10.374;2023-12-04T07:53:56;44.40;;;25.13;;
22679;SDS011;11507;44.858;10.374;2023-12-04T07:56:22;44.05;;;24.75;;
22679;SDS011;11507;44.858;10.374;2023-12-04T07:58:48;44.03;;;25.52;;
22679;SDS011;11507;44.858;10.374;2023-12-04T08:01:15;40.15;;;23.80;;
22679;SDS011;11507;44.858;10.374;2023-12-04T08:03:41;39.33;;;22.92;;
22679;SDS011;11507;44.858;10.374;2023-12-04T08:06:07;44.90;;;25.92;;
22679;SDS011;11507;44.858;10.374;2023-12-04T08:08:35;43.67;;;25.02;;
22679;SDS011;11507;44.858;10.374;2023-12-04T08:11:03;41.15;;;24.60;;
22679;SDS011;11507;44.858;10.374;2023-12-04T08:13:29;41.40;;;24.88;;
22679;SDS011;11507;44.858;10.374;2023-12-04T08:15:56;41.90;;;25.77;;
22679;SDS011;11507;44.858;10.374;2023-12-04T08:18:22;48.10;;;26.13;;
22679;SDS011;11507;44.858;10.374;2023-12-04T08:20:48;42.78;;;26.52;;
22679;SDS011;11507;44.858;10.374;2023-12-04T08:23:14;43.05;;;27.33;;
22679;SDS011;11507;44.858;10.374;2023-12-04T08:25:41;43.67;;;26.23;;
22679;SDS011;11507;44.858;10.374;2023-12-04T08:28:07;35.90;;;20.88;;
22679;SDS011;11507;44.858;10.374;2023-12-04T08:30:34;41.70;;;23.58;;
22679;SDS011;11507;44.858;10.374;2023-12-04T08:33:00;40.70;;;22.65;;
22679;SDS011;11507;44.858;10.374;2023-12-04T08:35:27;41.72;;;26.27;;
22679;SDS011;11507;44.858;10.374;2023-12-04T08:37:53;42.13;;;24.35;;
22679;SDS011;11507;44.858;10.374;2023-12-04T08:40:20;43.30;;;24.73;;
22679;SDS011;11507;44.858;10.374;2023-12-04T08:42:47;40.53;;;24.27;;
22679;SDS011;11507;44.858;10.374;2023-12-04T08:45:15;41.85;;;24.92;;
22679;SDS011;11507;44.858;10.374;2023-12-04T08:47:42;42.08;;;25.08;;
22679;SDS011;11507;44.858;10.374;2023-12-04T08:50:09;39.42;;;21.67;;
22679;SDS011;11507;44.858;10.374;2023-12-04T08:52:36;40.65;;;22.33;;
22679;SDS011;11507;44.858;10.374;2023-12-04T08:55:03;40.10;;;23.40;;
22679;SDS011;11507;44.858;10.374;2023-12-04T08:57:31;39.63;;;22.13;;
22679;SDS011;11507;44.858;10.374;2023-12-04T08:59:58;41.25;;;22.05;;
22679;SDS011;11507;44.858;10.374;2023-12-04T09:02:24;39.88;;;23.13;;
22679;SDS011;11507;44.858;10.374;2023-12-04T09:04:50;36.25;;;21.42;;
22679;SDS011;11507;44.858;10.374;2023-12-04T09:07:16;39.85;;;21.10;;
22679;SDS011;11507;44.858;10.374;2023-12-04T09:09:43;42.60;;;22.58;;
22679;SDS011;11507;44.858;10.374;2023-12-04T09:12:09;38.15;;;21.95;;
22679;SDS011;11507;44.858;10.374;2023-12-04T09:14:36;35.83;;;21.38;;
22679;SDS011;11507;44.858;10.374;2023-12-04T09:17:03;42.00;;;21.85;;
22679;SDS011;11507;44.858;10.374;2023-12-04T09:19:30;37.05;;;21.42;;
22679;SDS011;11507;44.858;10.374;2023-12-04T09:21:59;38.20;;;21.60;;
22679;SDS011;11507;44.858;10.374;2023-12-04T09:24:25;38.55;;;21.90;;
22679;SDS011;11507;44.858;10.374;2023-12-04T09:26:52;35.58;;;21.05;;
22679;SDS011;11507;44.858;10.374;2023-12-04T09:29:19;40.13;;;21.90;;
22679;SDS011;11507;44.858;10.374;2023-12-04T09:31:50;40.17;;;22.60;;
22679;SDS011;11507;44.858;10.374;2023-12-04T09:34:17;44.72;;;24.02;;
22679;SDS011;11507;44.858;10.374;2023-12-04T09:36:46;38.90;;;21.98;;
22679;SDS011;11507;44.858;10.374;2023-12-04T09:39:14;44.28;;;23.48;;
22679;SDS011;11507;44.858;10.374;2023-12-04T09:41:40;47.75;;;26.45;;
22679;SDS011;11507;44.858;10.374;2023-12-04T09:44:09;42.60;;;24.40;;
22679;SDS011;11507;44.858;10.374;2023-12-04T09:46:36;48.55;;;27.60;;
22679;SDS011;11507;44.858;10.374;2023-12-04T09:49:04;44.35;;;25.80;;
22679;SDS011;11507;44.858;10.374;2023-12-04T09:51:31;45.15;;;25.15;;
22679;SDS011;11507;44.858;10.374;2023-12-04T09:53:59;43.28;;;25.27;;
22679;SDS011;11507;44.858;10.374;2023-12-04T09:56:32;41.22;;;23.23;;
22679;SDS011;11507;44.858;10.374;2023-12-04T09:58:59;38.72;;;22.90;;
22679;SDS011;11507;44.858;10.374;2023-12-04T10:01:29;38.42;;;23.25;;
22679;SDS011;11507;44.858;10.374;2023-12-04T10:03:57;42.63;;;24.13;;
22679;SDS011;11507;44.858;10.374;2023-12-04T10:06:27;44.67;;;24.58;;
22679;SDS011;11507;44.858;10.374;2023-12-04T10:08:55;80.53;;;40.13;;
22679;SDS011;11507;44.858;10.374;2023-12-04T10:11:25;57.17;;;31.70;;
22679;SDS011;11507;44.858;10.374;2023-12-04T10:13:52;45.78;;;26.83;;
22679;SDS011;11507;44.858;10.374;2023-12-04T10:16:33;42.85;;;24.55;;
22679;SDS011;11507;44.858;10.374;2023-12-04T10:21:59;36.85;;;22.45;;
22679;SDS011;11507;44.858;10.374;2023-12-04T10:24:34;35.22;;;20.85;;
22679;SDS011;11507;44.858;10.374;2023-12-04T10:27:11;34.72;;;21.25;;
22679;SDS011;11507;44.858;10.374;2023-12-04T10:29:47;36.40;;;20.98;;
22679;SDS011;11507;44.858;10.374;2023-12-04T10:32:20;34.60;;;21.13;;
22679;SDS011;11507;44.858;10.374;2023-12-04T10:34:49;33.40;;;20.27;;
22679;SDS011;11507;44.858;10.374;2023-12-04T10:37:16;32.03;;;19.35;;
22679;SDS011;11507;44.858;10.374;2023-12-04T10:39:47;32.03;;;19.48;;
22679;SDS011;11507;44.858;10.374;2023-12-04T10:42:24;31.15;;;18.33;;
22679;SDS011;11507;44.858;10.374;2023-12-04T10:44:56;31.33;;;19.08;;
22679;SDS011;11507;44.858;10.374;2023-12-04T10:47:23;28.48;;;17.52;;
22679;SDS011;11507;44.858;10.374;2023-12-04T10:49:49;28.02;;;17.15;;
22679;SDS011;11507;44.858;10.374;2023-12-04T10:52:17;28.83;;;17.65;;
22679;SDS011;11507;44.858;10.374;2023-12-04T10:54:50;30.95;;;18.25;;
22679;SDS011;11507;44.858;10.374;2023-12-04T10:57:20;29.30;;;17.70;;
22679;SDS011;11507;44.858;10.374;2023-12-04T10:59:54;21.63;;;11.57;;
22679;SDS011;11507;44.858;10.374;2023-12-04T11:02:34;29.00;;;16.38;;
22679;SDS011;11507;44.858;10.374;2023-12-04T11:05:11;24.33;;;15.80;;
22679;SDS011;11507;44.858;10.374;2023-12-04T11:07:56;30.30;;;16.90;;
22679;SDS011;11507;44.858;10.374;2023-12-04T11:10:28;28.60;;;16.95;;
22679;SDS011;11507;44.858;10.374;2023-12-04T11:13:23;25.38;;;15.95;;
22679;SDS011;11507;44.858;10.374;2023-12-04T11:18:55;28.55;;;16.70;;
22679;SDS011;11507;44.858;10.374;2023-12-04T11:21:35;24.65;;;15.40;;
22679;SDS011;11507;44.858;10.374;2023-12-04T11:24:04;27.55;;;15.75;;
22679;SDS011;11507;44.858;10.374;2023-12-04T11:26:33;25.95;;;15.98;;
22679;SDS011;11507;44.858;10.374;2023-12-04T11:29:01;27.98;;;17.08;;
22679;SDS011;11507;44.858;10.374;2023-12-04T11:31:28;28.83;;;17.13;;
22679;SDS011;11507;44.858;10.374;2023-12-04T11:34:01;24.45;;;15.85;;
22679;SDS011;11507;44.858;10.374;2023-12-04T11:36:30;26.15;;;16.27;;
22679;SDS011;11507;44.858;10.374;2023-12-04T11:39:00;26.90;;;17.25;;
22679;SDS011;11507;44.858;10.374;2023-12-04T11:41:30;29.10;;;17.17;;
22679;SDS011;11507;44.858;10.374;2023-12-04T11:43:57;26.33;;;16.35;;
22679;SDS011;11507;44.858;10.374;2023-12-04T11:46:25;27.70;;;16.38;;
22679;SDS011;11507;44.858;10.374;2023-12-04T11:48:57;26.80;;;14.77;;
22679;SDS011;11507;44.858;10.374;2023-12-04T11:52:01;23.70;;;14.57;;
22679;SDS011;11507;44.858;10.374;2023-12-04T11:57:26;24.48;;;14.57;;
22679;SDS011;11507;44.858;10.374;2023-12-04T12:00:37;23.65;;;14.73;;
22679;SDS011;11507;44.858;10.374;2023-12-04T12:05:21;25.00;;;14.65;;
22679;SDS011;11507;44.858;10.374;2023-12-04T12:07:52;24.15;;;14.40;;
22679;SDS011;11507;44.858;10.374;2023-12-04T12:10:25;23.30;;;14.25;;
22679;SDS011;11507;44.858;10.374;2023-12-04T12:12:57;24.55;;;14.98;;
22679;SDS011;11507;44.858;10.374;2023-12-04T12:15:31;24.50;;;15.07;;
22679;SDS011;11507;44.858;10.374;2023-12-04T12:18:01;23.80;;;14.77;;
22679;SDS011;11507;44.858;10.374;2023-12-04T12:20:30;24.55;;;15.32;;
22679;SDS011;11507;44.858;10.374;2023-12-04T12:23:00;25.55;;;14.70;;
22679;SDS011;11507;44.858;10.374;2023-12-04T12:25:31;25.98;;;14.57;;
22679;SDS011;11507;44.858;10.374;2023-12-04T12:28:02;25.05;;;15.20;;
22679;SDS011;11507;44.858;10.374;2023-12-04T12:30:32;26.63;;;16.00;;
22679;SDS011;11507;44.858;10.374;2023-12-04T12:32:59;25.63;;;15.27;;
22679;SDS011;11507;44.858;10.374;2023-12-04T12:35:25;26.25;;;15.75;;
22679;SDS011;11507;44.858;10.374;2023-12-04T12:37:53;25.92;;;15.20;;
22679;SDS011;11507;44.858;10.374;2023-12-04T12:40:21;25.05;;;15.23;;
22679;SDS011;11507;44.858;10.374;2023-12-04T12:42:53;26.67;;;15.57;;
22679;SDS011;11507;44.858;10.374;2023-12-04T12:45:44;30.85;;;16.02;;
22679;SDS011;11507;44.858;10.374;2023-12-04T12:48:14;27.02;;;15.27;;
22679;SDS011;11507;44.858;10.374;2023-12-04T12:50:43;23.92;;;15.23;;
22679;SDS011;11507;44.858;10.374;2023-12-04T12:53:13;25.90;;;15.10;;
22679;SDS011;11507;44.858;10.374;2023-12-04T12:55:40;26.92;;;15.57;;
22679;SDS011;11507;44.858;10.374;2023-12-04T12:58:10;28.88;;;16.02;;
22679;SDS011;11507;44.858;10.374;2023-12-04T13:00:41;25.77;;;15.23;;
22679;SDS011;11507;44.858;10.374;2023-12-04T13:03:19;27.58;;;14.75;;
22679;SDS011;11507;44.858;10.374;2023-12-04T13:05:46;26.02;;;15.73;;
22679;SDS011;11507;44.858;10.374;2023-12-04T13:08:12;24.88;;;15.52;;
22679;SDS011;11507;44.858;10.374;2023-12-04T13:10:40;25.73;;;15.63;;
22679;SDS011;11507;44.858;10.374;2023-12-04T13:13:13;25.35;;;15.27;;
22679;SDS011;11507;44.858;10.374;2023-12-04T13:15:43;25.10;;;14.77;;
22679;SDS011;11507;44.858;10.374;2023-12-04T13:18:09;25.05;;;14.80;;
22679;SDS011;11507;44.858;10.374;2023-12-04T13:20:36;26.10;;;15.48;;
22679;SDS011;11507;44.858;10.374;2023-12-04T13:23:02;27.35;;;15.05;;
22679;SDS011;11507;44.858;10.374;2023-12-04T13:25:29;25.60;;;15.57;;
22679;SDS011;11507;44.858;10.374;2023-12-04T13:27:55;24.60;;;14.35;;
22679;SDS011;11507;44.858;10.374;2023-12-04T13:30:21;27.25;;;15.23;;
22679;SDS011;11507;44.858;10.374;2023-12-04T13:32:48;25.13;;;14.50;;
22679;SDS011;11507;44.858;10.374;2023-12-04T13:35:15;25.48;;;15.35;;
22679;SDS011;11507;44.858;10.374;2023-12-04T13:37:42;24.27;;;15.10;;
22679;SDS011;11507;44.858;10.374;2023-12-04T13:40:09;26.77;;;14.90;;
22679;SDS011;11507;44.858;10.374;2023-12-04T13:42:42;27.48;;;15.32;;
22679;SDS011;11507;44.858;10.374;2023-12-04T13:45:28;26.17;;;14.95;;
22679;SDS011;11507;44.858;10.374;2023-12-04T13:47:55;27.30;;;15.45;;
22679;SDS011;11507;44.858;10.374;2023-12-04T13:50:25;25.48;;;16.05;;
22679;SDS011;11507;44.858;10.374;2023-12-04T13:52:53;29.52;;;18.60;;
22679;SDS011;11507;44.858;10.374;2023-12-04T13:55:23;26.85;;;17.30;;
22679;SDS011;11507;44.858;10.374;2023-12-04T13:58:16;32.50;;;18.85;;
22679;SDS011;11507;44.858;10.374;2023-12-04T14:01:03;36.47;;;18.75;;
22679;SDS011;11507;44.858;10.374;2023-12-04T14:03:40;32.30;;;16.88;;
22679;SDS011;11507;44.858;10.374;2023-12-04T14:06:11;57.45;;;32.92;;
22679;SDS011;11507;44.858;10.374;2023-12-04T14:08:37;32.65;;;18.17;;
22679;SDS011;11507;44.858;10.374;2023-12-04T14:11:04;25.65;;;15.38;;
22679;SDS011;11507;44.858;10.374;2023-12-04T14:13:32;30.00;;;17.85;;
22679;SDS011;11507;44.858;10.374;2023-12-04T14:15:58;29.17;;;17.10;;
22679;SDS011;11507;44.858;10.374;2023-12-04T14:18:27;31.80;;;17.45;;
22679;SDS011;11507;44.858;10.374;2023-12-04T14:20:58;26.80;;;16.00;;
22679;SDS011;11507;44.858;10.374;2023-12-04T14:23:25;28.48;;;17.02;;
22679;SDS011;11507;44.858;10.374;2023-12-04T14:25:54;26.73;;;16.20;;